Time;durP1;ratioP1;P1;durP2;ratioP2;P2;SDS_P1;SDS_P2;PMS_P1;PMS_P2;Temp;Humidity;BMP_temperature;BMP_pressure;BME280_temperature;BME280_humidity;BME280_pressure;Samples;Min_cycle;Max_cycle;Signal;HPM_P1;HPM_P2
2024/04/07 00:02:19;;;;;;;1.48;0.70;;;17.00;99.90;;;;;;6117166;23;20477;-81
2024/04/07 00:04:46;;;;;;;3.60;0.88;;;16.90;99.90;;;;;;6117874;23;20020;-80
2024/04/07 00:07:13;;;;;;;4.07;0.90;;;17.00;99.90;;;;;;6142519;23;20455;-80
2024/04/07 00:09:39;;;;;;;1.35;0.57;;;16.90;99.90;;;;;;6117786;23;20024;-80
2024/04/07 00:12:08;;;;;;;1.98;0.52;;;16.90;99.90;;;;;;6142369;23;20020;-81
2024/04/07 00:14:38;;;;;;;2.80;0.68;;;16.90;99.90;;;;;;6118475;23;20016;-80
2024/04/07 00:17:05;;;;;;;2.25;0.50;;;16.90;99.90;;;;;;6152307;23;20008;-81
2024/04/07 00:19:33;;;;;;;1.48;0.52;;;16.90;99.90;;;;;;6117033;23;20242;-81
2024/04/07 00:21:59;;;;;;;5.60;0.68;;;16.90;99.90;;;;;;6150964;23;20470;-81
2024/04/07 00:24:26;;;;;;;1.85;0.68;;;16.90;99.90;;;;;;6178019;23;20012;-80
2024/04/07 00:26:52;;;;;;;2.47;0.57;;;16.90;99.90;;;;;;6192149;23;20013;-81
2024/04/07 00:29:19;;;;;;;1.85;0.65;;;16.90;99.90;;;;;;6201640;23;20012;-82
2024/04/07 00:31:45;;;;;;;2.60;0.50;;;16.90;99.90;;;;;;6152360;23;20004;-80
2024/04/07 00:34:12;;;;;;;1.85;0.68;;;17.00;99.90;;;;;;6142173;23;20254;-81
2024/04/07 00:36:38;;;;;;;1.30;0.60;;;17.00;99.90;;;;;;6178010;23;20012;-81
2024/04/07 00:39:04;;;;;;;1.88;0.60;;;17.00;99.90;;;;;;6141921;23;20348;-82
2024/04/07 00:41:31;;;;;;;2.70;0.70;;;17.10;99.90;;;;;;6142531;23;20019;-81
2024/04/07 00:43:57;;;;;;;1.80;0.90;;;17.10;99.90;;;;;;6178102;23;20016;-81
2024/04/07 00:46:24;;;;;;;2.20;0.65;;;17.20;99.90;;;;;;6117717;23;20470;-82
2024/04/07 00:48:50;;;;;;;1.80;0.98;;;17.20;99.90;;;;;;6142545;23;20422;-81
2024/04/07 00:51:18;;;;;;;1.10;0.60;;;17.20;99.90;;;;;;6142169;23;20043;-82
2024/04/07 00:53:45;;;;;;;3.67;0.90;;;17.30;99.90;;;;;;6143579;23;20437;-81
2024/04/07 00:56:11;;;;;;;2.65;0.73;;;17.30;99.90;;;;;;6119880;23;20009;-80
2024/04/07 00:58:38;;;;;;;3.13;0.80;;;17.40;99.90;;;;;;6153166;23;20427;-82
2024/04/07 01:01:04;;;;;;;3.70;1.45;;;17.40;99.90;;;;;;6142914;23;20020;-81
2024/04/07 01:03:31;;;;;;;4.03;0.80;;;17.50;99.90;;;;;;6179616;23;20394;-80
2024/04/07 01:05:57;;;;;;;3.72;1.13;;;17.50;99.90;;;;;;6142595;23;20025;-81
2024/04/07 01:08:24;;;;;;;3.63;0.70;;;17.60;99.90;;;;;;6172860;23;20009;-80
2024/04/07 01:10:51;;;;;;;4.20;1.00;;;17.70;99.90;;;;;;6142404;23;20016;-80
2024/04/07 01:13:24;;;;;;;6.30;0.95;;;17.80;99.90;;;;;;6179330;23;20367;-80
2024/04/07 01:15:50;;;;;;;4.93;0.85;;;17.90;99.90;;;;;;6117532;23;20009;-80
2024/04/07 01:18:18;;;;;;;6.53;0.80;;;18.00;99.90;;;;;;6140570;23;20012;-81
2024/04/07 01:20:45;;;;;;;8.75;1.00;;;18.00;99.90;;;;;;6092546;23;20013;-80
2024/04/07 01:23:18;;;;;;;3.70;0.60;;;18.00;99.90;;;;;;6143240;23;20462;-80
2024/04/07 01:25:45;;;;;;;6.65;0.90;;;18.10;99.90;;;;;;6094735;23;20032;-79
2024/04/07 01:28:12;;;;;;;5.47;1.00;;;18.10;99.90;;;;;;6118653;23;20108;-80
2024/04/07 01:30:39;;;;;;;5.43;0.80;;;18.10;99.90;;;;;;6177704;23;20402;-80
2024/04/07 01:33:05;;;;;;;6.90;1.20;;;18.00;99.90;;;;;;6094655;23;20009;-80
2024/04/07 01:35:32;;;;;;;7.38;1.23;;;18.00;99.90;;;;;;6180579;23;20214;-79
2024/04/07 01:37:58;;;;;;;7.40;1.35;;;18.00;99.90;;;;;;6179041;23;20013;-80
2024/04/07 01:40:24;;;;;;;4.95;0.70;;;18.00;99.90;;;;;;6179249;23;20005;-78
2024/04/07 01:42:51;;;;;;;4.25;0.70;;;17.90;99.90;;;;;;6119251;23;20009;-80
2024/04/07 01:45:19;;;;;;;4.40;0.50;;;17.90;99.90;;;;;;6178424;23;20005;-78
2024/04/07 01:47:45;;;;;;;4.00;0.60;;;17.90;99.90;;;;;;6118665;23;20020;-79
2024/04/07 01:50:12;;;;;;;4.35;0.77;;;17.80;99.90;;;;;;6118728;23;20017;-78
2024/04/07 01:52:38;;;;;;;4.65;0.70;;;17.80;99.90;;;;;;6094522;23;20017;-79
2024/04/07 01:55:05;;;;;;;4.90;0.80;;;17.70;99.90;;;;;;6143243;23;20048;-78
2024/04/07 01:57:32;;;;;;;6.50;0.82;;;17.70;99.90;;;;;;6117860;23;20415;-78
2024/04/07 01:59:58;;;;;;;4.68;0.60;;;17.60;99.90;;;;;;6093404;23;20020;-78
2024/04/07 02:02:24;;;;;;;3.20;0.60;;;17.50;99.90;;;;;;6153603;23;20005;-78
2024/04/07 02:04:51;;;;;;;2.92;0.73;;;17.50;99.90;;;;;;6143112;23;20020;-79
2024/04/07 02:07:20;;;;;;;2.90;0.70;;;17.50;99.90;;;;;;6142828;23;20469;-78
2024/04/07 02:09:48;;;;;;;1.55;0.63;;;17.40;99.90;;;;;;6095266;23;20020;-79
2024/04/07 02:12:15;;;;;;;2.60;0.40;;;17.40;99.90;;;;;;6119315;23;20453;-80
2024/04/07 02:14:42;;;;;;;2.42;0.40;;;17.40;99.90;;;;;;6154269;23;20012;-78
2024/04/07 02:17:08;;;;;;;3.40;0.52;;;17.30;99.90;;;;;;6119835;23;20064;-80
2024/04/07 02:19:34;;;;;;;3.63;0.50;;;17.30;99.90;;;;;;6152947;23;20001;-77
2024/04/07 02:22:01;;;;;;;2.67;0.47;;;17.20;99.90;;;;;;6179933;23;20025;-80
2024/04/07 02:24:27;;;;;;;3.92;0.85;;;17.10;99.90;;;;;;6204356;23;20001;-79
2024/04/07 02:26:53;;;;;;;3.55;0.80;;;17.10;99.90;;;;;;6193740;23;20020;-79
2024/04/07 02:29:20;;;;;;;3.97;0.63;;;17.00;99.90;;;;;;6168417;23;20016;-80
2024/04/07 02:31:46;;;;;;;2.50;0.40;;;17.00;99.90;;;;;;6179936;23;20005;-79
2024/04/07 02:34:13;;;;;;;3.53;0.40;;;16.90;99.90;;;;;;6119735;23;20479;-80
2024/04/07 02:36:40;;;;;;;3.58;0.40;;;16.90;99.90;;;;;;6095968;23;20017;-80
2024/04/07 02:39:10;;;;;;;1.65;0.40;;;16.90;99.90;;;;;;6168915;23;20013;-80
2024/04/07 02:41:36;;;;;;;1.08;0.30;;;16.80;99.90;;;;;;6178532;23;20008;-79
2024/04/07 02:44:03;;;;;;;2.60;0.40;;;16.80;99.90;;;;;;6130393;23;20178;-80
2024/04/07 02:49:15;;;;;;;1.27;0.30;;;16.70;99.90;;;;;;6118714;23;20462;-80
2024/04/07 02:51:42;;;;;;;3.17;0.40;;;16.70;99.90;;;;;;6148028;23;20335;-79
2024/04/07 02:54:10;;;;;;;1.77;0.30;;;16.60;99.90;;;;;;6154802;23;20012;-79
2024/04/07 02:56:36;;;;;;;2.60;0.63;;;16.60;99.90;;;;;;6144415;23;20013;-79
2024/04/07 02:59:03;;;;;;;3.85;0.60;;;16.50;99.90;;;;;;6095134;23;20013;-79
2024/04/07 03:01:30;;;;;;;6.10;0.50;;;16.50;99.90;;;;;;6180332;23;20001;-79
2024/04/07 03:03:56;;;;;;;1.50;0.50;;;16.40;99.90;;;;;;6143480;23;20364;-78
2024/04/07 03:06:23;;;;;;;3.80;0.30;;;16.40;99.90;;;;;;6179033;23;20009;-79
2024/04/07 03:08:51;;;;;;;2.33;0.30;;;16.30;99.90;;;;;;6175698;23;20013;-79
2024/04/07 03:11:17;;;;;;;2.25;0.30;;;16.30;99.90;;;;;;6180060;23;20402;-78
2024/04/07 03:13:44;;;;;;;1.27;0.30;;;16.20;99.90;;;;;;6118891;23;20017;-79
2024/04/07 03:16:13;;;;;;;3.22;0.40;;;16.20;99.90;;;;;;6119444;23;20009;-78
2024/04/07 03:18:39;;;;;;;3.05;0.40;;;16.20;99.90;;;;;;6143392;23;20447;-78
2024/04/07 03:21:06;;;;;;;2.72;0.30;;;16.10;99.90;;;;;;6143373;23;20366;-78
2024/04/07 03:23:32;;;;;;;1.30;0.30;;;16.10;99.90;;;;;;6154093;23;20784;-79
2024/04/07 03:25:59;;;;;;;3.47;0.50;;;16.10;99.90;;;;;;6178554;23;20009;-79
2024/04/07 03:28:25;;;;;;;1.92;0.30;;;16.10;99.90;;;;;;6142872;23;20017;-79
2024/04/07 03:30:52;;;;;;;1.73;0.30;;;16.10;99.90;;;;;;6142431;23;20005;-79
2024/04/07 03:33:18;;;;;;;1.52;0.30;;;16.00;99.90;;;;;;6118793;23;20474;-80
2024/04/07 03:35:45;;;;;;;3.00;0.30;;;16.00;99.90;;;;;;6143709;23;20482;-79
2024/04/07 03:38:11;;;;;;;1.85;0.32;;;16.00;99.90;;;;;;6178833;23;20016;-80
2024/04/07 03:40:38;;;;;;;1.35;0.20;;;16.00;99.90;;;;;;6142042;23;20354;-80
2024/04/07 03:43:05;;;;;;;3.25;0.30;;;16.00;99.90;;;;;;6153576;23;20013;-80
2024/04/07 03:45:31;;;;;;;1.33;0.20;;;16.00;99.90;;;;;;6177340;23;20097;-81
2024/04/07 03:47:58;;;;;;;1.10;0.20;;;16.00;99.90;;;;;;6143563;23;20020;-80
2024/04/07 03:50:24;;;;;;;1.27;0.13;;;16.00;99.90;;;;;;6142077;23;20028;-80
2024/04/07 03:52:50;;;;;;;2.35;0.30;;;16.00;99.90;;;;;;6169192;23;20005;-80
2024/04/07 03:55:17;;;;;;;1.33;0.20;;;16.00;99.90;;;;;;6142883;23;20150;-79
2024/04/07 03:57:43;;;;;;;0.70;0.17;;;16.00;99.90;;;;;;6119045;23;20009;-80
2024/04/07 04:00:10;;;;;;;2.08;0.50;;;16.00;99.90;;;;;;6141615;23;20020;-79
2024/04/07 04:02:45;;;;;;;1.73;0.20;;;15.90;99.90;;;;;;6141888;23;20505;-79
2024/04/07 04:05:11;;;;;;;1.15;0.38;;;15.90;99.90;;;;;;6153203;23;20001;-79
2024/04/07 04:07:37;;;;;;;1.25;0.22;;;15.90;99.90;;;;;;6118304;23;20016;-80
2024/04/07 04:10:04;;;;;;;0.77;0.20;;;15.90;99.90;;;;;;6118232;23;20528;-80
2024/04/07 04:12:31;;;;;;;2.30;0.30;;;15.90;99.90;;;;;;6153388;23;20005;-81
2024/04/07 04:14:58;;;;;;;1.08;0.20;;;15.90;99.90;;;;;;6142872;23;20016;-81
2024/04/07 04:17:25;;;;;;;0.80;0.20;;;16.00;99.90;;;;;;6153598;23;20020;-81
2024/04/07 04:19:52;;;;;;;0.75;0.10;;;16.00;99.90;;;;;;6118054;23;20009;-80
2024/04/07 04:22:18;;;;;;;1.52;0.20;;;16.00;99.90;;;;;;6117989;23;20027;-81
2024/04/07 04:24:45;;;;;;;1.23;0.10;;;16.00;99.90;;;;;;6118327;23;20024;-80
2024/04/07 04:27:11;;;;;;;1.45;0.20;;;16.00;99.90;;;;;;6118823;23;20499;-79
2024/04/07 04:29:38;;;;;;;0.93;0.10;;;16.00;99.90;;;;;;6118422;23;20024;-80
2024/04/07 04:32:04;;;;;;;1.42;0.20;;;16.00;99.90;;;;;;6094173;23;20024;-79
2024/04/07 04:34:34;;;;;;;2.67;0.20;;;16.10;99.90;;;;;;6177835;23;20016;-81
2024/04/07 04:37:01;;;;;;;0.32;0.10;;;16.10;99.90;;;;;;6143253;23;20411;-79
2024/04/07 04:39:27;;;;;;;1.23;0.10;;;16.10;99.90;;;;;;6178258;23;20005;-79
2024/04/07 04:41:56;;;;;;;1.48;0.40;;;16.00;99.90;;;;;;6142251;23;20016;-80
2024/04/07 04:44:23;;;;;;;0.28;0.10;;;16.10;99.90;;;;;;6142594;23;20016;-80
2024/04/07 04:46:49;;;;;;;0.98;0.43;;;16.10;99.90;;;;;;6177730;23;20013;-81
2024/04/07 04:49:16;;;;;;;1.98;0.22;;;16.10;99.90;;;;;;6178902;23;20004;-80
2024/04/07 04:51:44;;;;;;;1.98;0.15;;;16.10;99.90;;;;;;6117648;23;20020;-79
2024/04/07 04:54:11;;;;;;;1.45;0.20;;;16.10;99.90;;;;;;6118595;23;20458;-80
2024/04/07 04:56:38;;;;;;;1.67;0.10;;;16.10;99.90;;;;;;6143981;23;20462;-78
2024/04/07 04:59:05;;;;;;;0.40;0.10;;;16.10;99.90;;;;;;6154466;23;20466;-80
2024/04/07 05:01:31;;;;;;;0.75;0.10;;;16.10;99.90;;;;;;6155111;23;20032;-80
2024/04/07 05:03:59;;;;;;;0.40;0.10;;;16.00;99.90;;;;;;6144889;23;20024;-80
2024/04/07 05:06:26;;;;;;;1.23;0.20;;;15.90;99.90;;;;;;6120530;23;20023;-79
2024/04/07 05:08:52;;;;;;;1.88;0.10;;;15.90;99.90;;;;;;6119586;23;20458;-80
2024/04/07 05:11:19;;;;;;;0.98;0.10;;;15.90;99.90;;;;;;6144384;23;20040;-80
2024/04/07 05:13:45;;;;;;;2.45;0.20;;;15.90;99.90;;;;;;6175422;23;20012;-79
2024/04/07 05:16:13;;;;;;;0.70;0.10;;;16.00;99.90;;;;;;6169659;23;20025;-79
2024/04/07 05:18:41;;;;;;;0.50;0.05;;;16.00;99.90;;;;;;6144014;23;20734;-78
2024/04/07 05:21:09;;;;;;;0.70;0.10;;;16.00;99.90;;;;;;6119350;23;20052;-79
2024/04/07 05:23:36;;;;;;;1.83;0.10;;;16.00;99.90;;;;;;6121327;23;20009;-78
2024/04/07 05:26:19;;;;;;;1.02;0.10;;;16.00;99.90;;;;;;6144659;23;20009;-78
2024/04/07 05:28:46;;;;;;;0.52;0.10;;;16.00;99.90;;;;;;6119299;23;20016;-79
2024/04/07 05:31:13;;;;;;;0.93;0.10;;;16.00;99.90;;;;;;6119842;23;20015;-79
2024/04/07 05:33:41;;;;;;;1.05;0.15;;;16.00;99.90;;;;;;6096713;23;20005;-80
2024/04/07 05:36:08;;;;;;;2.45;0.10;;;16.00;99.90;;;;;;6119952;23;20321;-80
2024/04/07 05:38:35;;;;;;;1.27;0.13;;;16.00;99.90;;;;;;6154190;23;20009;-79
2024/04/07 05:41:02;;;;;;;0.65;0.10;;;16.00;99.90;;;;;;6144637;23;20012;-80
2024/04/07 05:43:29;;;;;;;1.00;0.10;;;16.00;99.90;;;;;;6154954;23;20005;-80
2024/04/07 05:45:56;;;;;;;0.60;0.30;;;16.00;99.90;;;;;;6154879;23;20339;-79
2024/04/07 05:48:23;;;;;;;1.05;0.15;;;15.90;99.90;;;;;;6154434;23;20001;-79
2024/04/07 05:50:49;;;;;;;1.23;0.20;;;15.90;99.90;;;;;;6144276;23;20530;-79
2024/04/07 05:53:16;;;;;;;1.75;0.20;;;16.00;99.90;;;;;;6143496;23;20401;-80
2024/04/07 05:55:43;;;;;;;0.40;0.10;;;16.00;99.90;;;;;;6143923;23;20016;-79
2024/04/07 05:58:09;;;;;;;0.30;0.17;;;16.00;99.90;;;;;;6119389;23;20580;-79
2024/04/07 06:00:36;;;;;;;0.68;0.10;;;16.00;99.90;;;;;;6143168;23;20493;-78
2024/04/07 06:03:03;;;;;;;1.35;0.10;;;16.00;99.90;;;;;;6181039;23;20446;-79
2024/04/07 06:05:30;;;;;;;0.63;0.10;;;16.00;99.90;;;;;;6129641;23;20490;-81
2024/04/07 06:07:56;;;;;;;1.38;0.10;;;16.00;99.90;;;;;;6152722;23;20438;-80
2024/04/07 06:10:23;;;;;;;0.35;0.10;;;16.00;99.90;;;;;;6179779;23;20001;-80
2024/04/07 06:12:49;;;;;;;0.68;0.10;;;16.00;99.90;;;;;;6153802;23;20647;-81
2024/04/07 06:15:16;;;;;;;0.95;0.10;;;15.90;99.90;;;;;;6169040;23;20033;-81
2024/04/07 06:17:43;;;;;;;0.40;0.10;;;15.90;99.90;;;;;;6144231;23;20354;-79
2024/04/07 06:20:10;;;;;;;1.95;0.20;;;15.80;99.90;;;;;;6142905;23;20036;-80
2024/04/07 06:22:36;;;;;;;0.90;0.17;;;15.80;99.90;;;;;;6144018;23;20028;-80
2024/04/07 06:25:04;;;;;;;1.85;0.40;;;15.80;99.90;;;;;;6180737;23;20446;-82
2024/04/07 06:27:35;;;;;;;1.52;0.10;;;15.80;99.90;;;;;;6119729;23;20242;-83
2024/04/07 06:30:07;;;;;;;0.73;0.20;;;15.80;99.90;;;;;;6143368;23;20013;-82
2024/04/07 06:32:33;;;;;;;1.35;0.30;;;15.80;99.90;;;;;;6153437;23;20005;-80
2024/04/07 06:35:00;;;;;;;0.95;0.20;;;15.70;99.90;;;;;;6119366;23;20339;-79
2024/04/07 06:37:26;;;;;;;1.42;0.60;;;15.70;99.90;;;;;;6180883;23;20012;-80
2024/04/07 06:39:53;;;;;;;1.42;0.47;;;15.70;99.90;;;;;;6143393;23;20044;-80
2024/04/07 06:42:29;;;;;;;1.95;0.32;;;15.60;99.90;;;;;;6178778;23;20012;-79
2024/04/07 06:44:59;;;;;;;2.13;0.25;;;15.60;99.90;;;;;;6119265;23;20459;-80
2024/04/07 06:47:26;;;;;;;3.85;0.40;;;15.70;99.90;;;;;;6143972;23;20036;-79
2024/04/07 06:49:55;;;;;;;0.60;0.20;;;15.80;99.90;;;;;;6094694;23;20028;-80
2024/04/07 06:52:22;;;;;;;1.02;0.20;;;15.90;99.90;;;;;;6168158;23;20012;-79
2024/04/07 06:54:48;;;;;;;0.88;0.15;;;16.00;99.90;;;;;;6180134;23;20001;-80
2024/04/07 06:57:16;;;;;;;1.90;0.20;;;16.10;99.90;;;;;;6178608;23;20017;-76
2024/04/07 06:59:43;;;;;;;0.82;0.10;;;16.10;99.90;;;;;;6117797;23;20017;-77
2024/04/07 07:02:09;;;;;;;0.82;0.10;;;16.00;99.90;;;;;;6179604;23;20016;-78
2024/04/07 07:04:36;;;;;;;0.90;0.20;;;16.00;99.90;;;;;;6192399;23;20013;-78
2024/04/07 07:07:03;;;;;;;1.02;0.20;;;16.00;99.90;;;;;;6143420;23;20024;-77
2024/04/07 07:09:29;;;;;;;1.05;0.20;;;16.00;99.90;;;;;;6118377;23;20021;-76
2024/04/07 07:11:56;;;;;;;2.03;0.20;;;16.10;99.90;;;;;;6142066;23;20044;-78
2024/04/07 07:14:23;;;;;;;2.17;0.20;;;16.30;99.90;;;;;;6118964;23;20036;-78
2024/04/07 07:16:49;;;;;;;1.45;0.20;;;16.60;99.90;;;;;;6118660;23;20021;-78
2024/04/07 07:19:18;;;;;;;1.70;0.20;;;16.80;99.90;;;;;;6118004;23;20407;-77
2024/04/07 07:21:44;;;;;;;1.70;0.30;;;17.00;99.90;;;;;;6179395;23;20013;-78
2024/04/07 07:24:11;;;;;;;2.22;0.60;;;17.00;99.90;;;;;;6143565;23;20013;-78
2024/04/07 07:26:37;;;;;;;2.20;0.40;;;16.90;99.90;;;;;;6143101;23;20457;-77
2024/04/07 07:29:03;;;;;;;1.77;0.22;;;16.80;99.90;;;;;;6177957;23;20434;-79
2024/04/07 07:31:31;;;;;;;0.80;0.20;;;16.70;99.90;;;;;;6142246;23;20168;-80
2024/04/07 07:33:57;;;;;;;1.88;0.20;;;16.60;99.90;;;;;;6144081;23;20009;-79
2024/04/07 07:36:23;;;;;;;2.60;0.10;;;16.50;99.90;;;;;;6143535;23;20009;-79
2024/04/07 07:38:50;;;;;;;1.73;0.28;;;16.50;99.90;;;;;;6142027;23;20908;-79
2024/04/07 07:41:20;;;;;;;3.25;0.20;;;16.40;99.90;;;;;;6177051;23;20009;-79
2024/04/07 07:43:47;;;;;;;2.85;0.30;;;16.30;99.90;;;;;;6153593;23;20005;-79
2024/04/07 07:46:13;;;;;;;1.08;0.20;;;16.30;99.90;;;;;;6118564;23;20024;-79
2024/04/07 07:48:40;;;;;;;1.10;0.20;;;16.30;99.90;;;;;;6141972;23;20462;-79
2024/04/07 07:51:11;;;;;;;1.00;0.20;;;16.30;99.90;;;;;;6142559;23;20024;-80
2024/04/07 07:53:38;;;;;;;2.17;0.25;;;16.30;99.90;;;;;;6129524;23;20001;-80
2024/04/07 07:56:08;;;;;;;1.65;0.20;;;16.60;99.90;;;;;;6119207;23;20013;-79
2024/04/07 07:58:35;;;;;;;1.67;0.45;;;16.90;99.90;;;;;;6117403;23;20065;-80
2024/04/07 08:01:02;;;;;;;3.13;0.40;;;17.10;99.90;;;;;;6118480;23;20331;-83
2024/04/07 08:03:29;;;;;;;2.70;0.40;;;17.30;99.90;;;;;;6153962;23;20001;-83
2024/04/07 08:05:56;;;;;;;1.77;0.40;;;17.50;99.90;;;;;;6155158;23;20112;-82
2024/04/07 08:08:23;;;;;;;1.30;0.50;;;17.70;99.90;;;;;;6143910;23;20013;-84
2024/04/07 08:10:49;;;;;;;3.65;1.65;;;17.90;99.90;;;;;;6118658;23;20335;-83
2024/04/07 08:13:16;;;;;;;1.10;0.30;;;18.10;99.90;;;;;;6094090;23;20021;-84
2024/04/07 08:15:44;;;;;;;2.17;0.30;;;18.30;99.90;;;;;;6118524;23;20024;-82
2024/04/07 08:18:11;;;;;;;2.83;0.30;;;18.40;99.90;;;;;;6128349;23;20012;-80
2024/04/07 08:20:39;;;;;;;2.65;0.57;;;18.60;99.90;;;;;;6092811;23;20016;-81
2024/04/07 08:23:05;;;;;;;3.20;0.30;;;18.60;99.90;;;;;;6118662;23;20009;-80
2024/04/07 08:25:33;;;;;;;2.15;0.30;;;18.60;99.90;;;;;;6143160;23;20016;-80
2024/04/07 08:28:00;;;;;;;2.05;0.22;;;18.60;99.90;;;;;;6094466;23;20021;-80
2024/04/07 08:30:27;;;;;;;1.73;0.20;;;18.70;99.90;;;;;;6093267;23;20466;-80
2024/04/07 08:32:54;;;;;;;3.33;0.50;;;18.80;99.90;;;;;;6143257;23;20016;-80
2024/04/07 08:35:21;;;;;;;3.72;0.50;;;19.00;99.90;;;;;;6118804;23;20343;-77
2024/04/07 08:37:47;;;;;;;2.95;0.45;;;19.10;99.90;;;;;;6118921;23;20009;-77
2024/04/07 08:40:14;;;;;;;1.50;0.55;;;19.10;99.90;;;;;;6117727;23;20005;-78
2024/04/07 08:42:42;;;;;;;1.80;0.40;;;19.20;99.90;;;;;;6117934;23;20320;-77
2024/04/07 08:45:10;;;;;;;2.60;0.30;;;19.20;99.90;;;;;;6128342;23;20323;-77
2024/04/07 08:47:38;;;;;;;5.03;0.40;;;19.20;99.90;;;;;;6118074;23;20355;-77
2024/04/07 08:50:09;;;;;;;3.28;0.40;;;19.30;99.90;;;;;;6117331;23;20009;-77
2024/04/07 08:52:36;;;;;;;3.90;0.40;;;19.30;99.90;;;;;;6140461;23;20028;-78
2024/04/07 08:55:04;;;;;;;3.30;0.30;;;19.30;99.90;;;;;;6178998;23;20320;-78
2024/04/07 08:57:31;;;;;;;8.57;0.40;;;19.40;99.90;;;;;;6142927;23;20020;-77
2024/04/07 08:59:59;;;;;;;2.33;0.40;;;19.40;99.90;;;;;;6141875;23;20426;-78
2024/04/07 09:02:31;;;;;;;2.60;0.47;;;19.50;99.90;;;;;;6178464;23;20001;-77
2024/04/07 09:05:00;;;;;;;4.05;0.40;;;19.50;99.90;;;;;;6116658;23;20453;-77
2024/04/07 09:07:28;;;;;;;2.53;0.50;;;19.50;99.90;;;;;;6118321;23;20013;-77
2024/04/07 09:09:54;;;;;;;3.15;0.50;;;19.60;99.90;;;;;;6141751;23;20365;-76
2024/04/07 09:12:22;;;;;;;1.95;0.30;;;19.70;99.90;;;;;;6165754;23;20017;-76
2024/04/07 09:14:52;;;;;;;2.63;0.60;;;19.70;99.90;;;;;;6118216;23;20663;-77
2024/04/07 09:17:19;;;;;;;2.05;0.30;;;19.70;99.90;;;;;;6153458;23;20012;-77
2024/04/07 09:19:45;;;;;;;1.80;0.30;;;19.70;99.90;;;;;;6093563;23;20012;-77
2024/04/07 09:22:11;;;;;;;2.05;0.40;;;19.70;99.90;;;;;;6179389;23;20156;-77
2024/04/07 09:24:38;;;;;;;2.58;0.43;;;19.60;99.90;;;;;;6143182;23;20028;-76
2024/04/07 09:27:09;;;;;;;2.17;0.47;;;19.60;99.90;;;;;;6153441;23;20580;-78
2024/04/07 09:29:39;;;;;;;2.03;0.30;;;19.50;99.90;;;;;;6118068;23;20024;-77
2024/04/07 09:32:07;;;;;;;2.67;0.30;;;19.40;99.90;;;;;;6118405;23;20013;-77
2024/04/07 09:34:35;;;;;;;2.47;0.30;;;19.30;99.90;;;;;;6118765;23;20008;-78
2024/04/07 09:37:03;;;;;;;2.28;0.30;;;19.30;99.90;;;;;;6119396;23;20088;-77
2024/04/07 09:39:32;;;;;;;5.00;0.70;;;19.40;99.90;;;;;;6118393;23;20013;-77
2024/04/07 09:42:00;;;;;;;1.30;0.30;;;19.50;99.90;;;;;;6152708;23;20008;-79
2024/04/07 09:44:35;;;;;;;2.83;0.40;;;19.50;99.90;;;;;;6153665;23;19997;-77
2024/04/07 09:47:06;;;;;;;1.98;0.45;;;19.60;99.90;;;;;;6154615;23;20005;-77
2024/04/07 09:49:38;;;;;;;;;;;19.80;99.90;;;;;;6119877;23;20013;-77
2024/04/07 09:52:07;;;;;;;1.85;0.22;;;19.90;99.90;;;;;;6144629;23;19911;-78
2024/04/07 09:54:44;;;;;;;4.28;0.30;;;19.90;99.90;;;;;;6119815;23;20020;-78
2024/04/07 09:57:13;;;;;;;2.15;0.50;;;20.00;99.90;;;;;;6120004;23;20017;-80
2024/04/07 09:59:40;;;;;;;1.42;0.38;;;20.00;99.90;;;;;;6095378;23;20013;-77
2024/04/07 10:02:07;;;;;;;4.05;0.40;;;20.10;99.90;;;;;;6119677;23;20020;-77
2024/04/07 10:04:33;;;;;;;1.13;0.20;;;20.10;99.90;;;;;;6144208;23;20009;-77
2024/04/07 10:07:04;;;;;;;1.80;0.30;;;20.20;99.90;;;;;;6154936;23;20051;-78
2024/04/07 10:09:31;;;;;;;1.58;0.30;;;20.30;99.90;;;;;;6095021;23;20017;-76
2024/04/07 10:11:58;;;;;;;4.93;1.15;;;20.30;99.90;;;;;;6168385;23;20005;-77
2024/04/07 10:14:35;;;;;;;2.25;0.57;;;20.40;99.90;;;;;;6144357;23;20466;-77
2024/04/07 10:17:01;;;;;;;2.70;0.50;;;20.40;99.90;;;;;;6144970;23;20020;-77
2024/04/07 10:19:28;;;;;;;4.30;0.32;;;20.40;99.90;;;;;;6180192;23;20001;-77
2024/04/07 10:21:55;;;;;;;1.02;0.25;;;20.40;99.90;;;;;;6118732;23;20017;-77
2024/04/07 10:24:21;;;;;;;3.15;0.30;;;20.40;99.60;;;;;;6143675;23;20005;-77
2024/04/07 10:26:55;;;;;;;2.33;0.30;;;20.40;99.60;;;;;;6094215;23;20013;-77
2024/04/07 10:29:31;;;;;;;2.45;0.40;;;20.30;99.80;;;;;;6094426;23;20013;-76
2024/04/07 10:31:57;;;;;;;2.40;0.40;;;20.30;99.90;;;;;;6152608;23;20386;-77
2024/04/07 10:34:24;;;;;;;1.83;0.30;;;20.60;99.90;;;;;;6154074;23;20001;-79
2024/04/07 10:36:56;;;;;;;1.80;0.40;;;21.10;99.90;;;;;;6145171;23;20009;-78
2024/04/07 10:39:24;;;;;;;3.60;0.40;;;21.50;99.30;;;;;;6143408;23;20019;-80
2024/04/07 10:41:51;;;;;;;1.67;0.40;;;22.00;99.50;;;;;;6119131;23;20431;-79
2024/04/07 10:44:19;;;;;;;2.08;0.45;;;22.40;98.70;;;;;;6144694;23;20209;-79
2024/04/07 10:46:46;;;;;;;1.38;0.30;;;22.90;98.50;;;;;;6154648;23;20016;-79
2024/04/07 10:49:13;;;;;;;2.85;0.40;;;23.30;97.70;;;;;;6153743;23;20005;-80
2024/04/07 10:51:46;;;;;;;1.73;0.30;;;23.70;97.20;;;;;;6143259;23;20451;-80
2024/04/07 10:54:12;;;;;;;2.10;0.40;;;24.10;96.30;;;;;;6119685;23;20024;-77
2024/04/07 10:56:41;;;;;;;1.80;0.40;;;24.50;95.50;;;;;;6178782;23;20012;-81
2024/04/07 10:59:07;;;;;;;1.40;0.30;;;24.80;95.20;;;;;;6118151;23;20020;-78
2024/04/07 11:01:34;;;;;;;1.92;0.30;;;25.10;94.70;;;;;;6178425;23;20005;-79
2024/04/07 11:04:01;;;;;;;2.28;0.50;;;25.20;93.70;;;;;;6143588;23;20450;-78
2024/04/07 11:06:27;;;;;;;1.83;0.30;;;25.10;93.30;;;;;;6143725;23;20013;-77
2024/04/07 11:08:54;;;;;;;1.98;0.40;;;25.20;92.90;;;;;;6147753;23;20009;-78
2024/04/07 11:11:23;;;;;;;1.75;0.43;;;25.30;92.20;;;;;;6153562;23;20028;-77
2024/04/07 11:13:55;;;;;;;2.20;0.55;;;25.40;92.10;;;;;;6118889;23;20008;-80
2024/04/07 11:16:22;;;;;;;1.60;0.70;;;25.70;92.10;;;;;;6119564;23;20013;-78
2024/04/07 11:18:48;;;;;;;1.70;0.40;;;26.00;92.20;;;;;;6179090;23;20369;-78
2024/04/07 11:21:16;;;;;;;3.85;0.40;;;26.40;91.60;;;;;;6179276;23;20001;-77
2024/04/07 11:23:44;;;;;;;1.75;0.35;;;26.50;91.20;;;;;;6119069;23;20005;-77
2024/04/07 11:26:11;;;;;;;5.20;1.30;;;26.50;90.00;;;;;;6119523;23;20008;-78
2024/04/07 11:28:38;;;;;;;10.95;1.70;;;26.70;90.30;;;;;;6117380;23;20614;-76
2024/04/07 11:31:08;;;;;;;2.08;0.50;;;27.10;89.60;;;;;;6179644;23;20005;-77
2024/04/07 11:33:35;;;;;;;2.17;0.30;;;27.50;87.60;;;;;;6094787;23;20460;-77
2024/04/07 11:36:02;;;;;;;4.90;0.35;;;27.70;85.10;;;;;;6142419;23;20008;-77
2024/04/07 11:38:30;;;;;;;5.35;0.43;;;27.70;84.40;;;;;;6118521;23;20456;-81
2024/04/07 11:40:56;;;;;;;3.08;0.40;;;27.90;83.20;;;;;;6142919;23;20342;-78
2024/04/07 11:43:23;;;;;;;1.65;0.30;;;28.10;81.80;;;;;;6129301;23;20020;-76
2024/04/07 11:45:49;;;;;;;2.28;0.40;;;28.20;82.20;;;;;;6180622;23;20004;-77
2024/04/07 11:48:16;;;;;;;63.33;6.20;;;28.20;81.20;;;;;;6154252;23;20005;-76
2024/04/07 11:50:42;;;;;;;15.00;1.63;;;28.50;80.60;;;;;;6117563;23;20013;-78
2024/04/07 11:53:09;;;;;;;3.38;0.50;;;28.90;80.10;;;;;;6178768;23;19997;-77
2024/04/07 11:55:37;;;;;;;3.35;0.60;;;29.30;79.30;;;;;;6142689;23;20016;-77
2024/04/07 11:58:03;;;;;;;3.17;0.40;;;29.60;77.10;;;;;;6153953;23;20001;-77
2024/04/07 12:00:30;;;;;;;2.20;0.30;;;29.90;75.90;;;;;;6152121;23;20001;-77
2024/04/07 12:02:57;;;;;;;1.77;0.40;;;30.20;74.10;;;;;;6143790;23;20017;-78
2024/04/07 12:05:23;;;;;;;2.58;0.40;;;30.40;72.80;;;;;;6179995;23;20437;-77
2024/04/07 12:07:50;;;;;;;1.77;0.60;;;30.60;72.40;;;;;;6177730;23;20306;-75
2024/04/07 12:10:16;;;;;;;4.65;1.00;;;30.80;71.80;;;;;;6177559;23;20005;-77
2024/04/07 12:12:43;;;;;;;6.32;1.05;;;31.10;69.90;;;;;;6178569;23;20057;-77
2024/04/07 12:15:09;;;;;;;2.65;0.80;;;31.40;69.60;;;;;;6178333;23;20465;-77
2024/04/07 12:17:35;;;;;;;1.77;0.50;;;31.70;68.10;;;;;;6144097;23;20024;-77
2024/04/07 12:20:03;;;;;;;1.67;0.60;;;31.80;66.40;;;;;;6118304;23;20012;-77
2024/04/07 12:22:37;;;;;;;1.63;0.40;;;32.00;66.00;;;;;;6168136;23;20009;-77
2024/04/07 12:25:06;;;;;;;1.20;0.50;;;32.10;65.70;;;;;;6153669;23;20502;-76
2024/04/07 12:27:34;;;;;;;2.17;0.30;;;32.40;65.20;;;;;;6119398;23;20005;-75
2024/04/07 12:30:00;;;;;;;2.30;0.50;;;32.70;63.90;;;;;;6118702;23;20096;-76
2024/04/07 12:32:30;;;;;;;5.35;0.52;;;32.90;63.00;;;;;;6142323;23;20443;-75
2024/04/07 12:34:57;;;;;;;4.40;0.40;;;33.10;61.80;;;;;;6153233;23;20012;-77
2024/04/07 12:37:23;;;;;;;2.80;0.40;;;33.10;60.70;;;;;;6144313;23;20016;-77
2024/04/07 12:39:50;;;;;;;2.35;0.30;;;33.20;59.80;;;;;;6117915;23;20017;-76
2024/04/07 12:42:17;;;;;;;1.83;0.30;;;33.30;59.30;;;;;;6142252;23;20013;-76
2024/04/07 12:44:43;;;;;;;0.90;0.20;;;33.40;57.50;;;;;;6118476;23;20005;-75
2024/04/07 12:47:12;;;;;;;0.95;0.30;;;33.40;58.00;;;;;;6143926;23;20005;-76
2024/04/07 12:49:38;;;;;;;1.02;0.30;;;33.50;57.30;;;;;;6177398;23;20462;-75
2024/04/07 12:52:05;;;;;;;0.85;0.13;;;33.50;55.80;;;;;;6177183;23;20037;-78